Pagrindinis puslapis
METAR-TAF:

METAR-TAF

Oro uostai :

Al Wajh, Saudo Arabija

platuma: 26-12N, ilguma: 036-28E, Aukštis: 20 m

Dabartinis oras

Ataskaita buvo paskelbta 1 valandą ir 13 minutes, ne 07:00 UTC
Vėjas 4 kt iš Rytų/Pietryčių
Temperatūra 35°C
Drėgmė 9%
Slėgis 1013 hPa
Matomumas 10 km arba daugiau
nėra debesų žemiau 1500 m ir nėra kamuolinių lietaus debesų

METAR: OEWJ 210700Z 11004KT CAVOK 35/M02 Q1013 NOSIG

Laikas: 11:13 (08:13 UTC)

Prognozė

Ataskaita buvo paskelbta 9 valandos ir 13 minutes, ne 23:00 UTC
Prognozė galioja nuo 21 metu 00 UTC su 22 metu 06 UTC
Vėjas 7 kt iš Rytų
Matomumas 10 km arba daugiau
nėra debesų žemiau 1500 m ir nėra kamuolinių lietaus debesų
Tapsmas
nuo 21 metu 08 UTC su 21 metu 10 UTC
Vėjas 12 kt iš Vakarų

TAF: OEWJ 202300Z 2100/2206 08007KT CAVOK BECMG 2108/2110 27012KT

Orai ataskaitas ir orų prognozės (METAR, TAF).

turimą stotys yra geltonos ir raudonos taškus žemėlapyje.

Perkelti pele per norėdami pamatyti stoties vardą.

Tada spustelėkite, norėdami matyti oro stebėjimo ir prognozės.

Norėdami pakeisti žemėlapį: spustelėkite ant žalios mygtukų su juodo kryžiaus žemyn,; žalią mygtuką su brūkšneliu, jei norite nutolinti; arba žalių rodyklių gretimoms žemėlapius.


METAR-TAF: